Flight Track Log - Related Links

Times and Time Zones

All times are in EDT time to prevent confusion due to time zone crossing. See the JBU1329 flight status page for this flight to view local times or setup timezone preferences in your user account.

Time Position Orientation Groundspeed Altitude Reporting Facility
EDT Latitude Longitude Course Direction KTS MPH feet Rate Location/Type
Sat 09:17:00 AM 42.3500 -71.0167 270° West 140 161 900  Level KA90
Sat 09:17:24 AM 42.3333 -71.0167 180° South 154 177 2,000 2,444 Climbing KA90
Sat 09:19:00 AM 42.3769 -70.7321 172° South  Level FlightAware
Sat 09:19:15 AM 42.3183 -70.8536 97° East 264 304 6,400  Level Boston Center
Sat 09:20:00 AM 42.2856 -70.7383 228° Southwest  Level FlightAware
Sat 09:20:15 AM 42.3147 -70.7442 93° East 277 319 9,700  Level Boston Center
Sat 09:21:00 AM 42.2227 -70.8415 240° Southwest  Level FlightAware
Sat 09:21:15 AM 42.2331 -70.7239 170° South 242 278 11,500  Level Boston Center
Sat 09:22:00 AM 42.1833 -70.9613 270° West  Level FlightAware
Sat 09:22:15 AM 42.1761 -70.8125 229° Southwest 218 251 14,000  Level Boston Center
Sat 09:23:15 AM 42.1592 -70.9417 260° West 278 320 16,600 2,318 Climbing Boston Center
Sat 09:24:27 AM 42.1467 -71.1017 264° West 346 398 19,100 2,136 Climbing Boston Center
Sat 09:25:27 AM 42.1314 -71.2281 261° West 377 434 21,300 1,850 Climbing Boston Center
Sat 09:26:27 AM 42.0889 -71.3575 246° West 383 441 22,800 1,500 Climbing Boston Center
Sat 09:27:27 AM 42.0442 -71.4867 245° Southwest 383 441 24,300 1,350 Climbing Boston Center
Sat 09:28:27 AM 41.9931 -71.6161 242° Southwest 388 447 25,500 1,200 Climbing Boston Center
Sat 09:29:27 AM 41.9439 -71.7536 244° Southwest 394 453 26,700 1,250 Climbing Boston Center
Sat 09:30:27 AM 41.8969 -71.8933 246° West 404 465 28,000 650 Climbing Boston Center
Sat 09:31:27 AM 41.8578 -71.9997 244° Southwest 409 471 28,000  Level Boston Center
Sat 09:32:27 AM 41.7997 -72.1617 244° Southwest 404 465 28,000  Level Boston Center
Sat 09:33:27 AM 41.7522 -72.2953 245° Southwest 404 465 28,000 -50 Level Boston Center
Sat 09:34:27 AM 41.7003 -72.4400 244° Southwest 404 465 27,900  Descending Boston Center
Sat 09:35:27 AM 41.6522 -72.5706 244° Southwest 404 465 28,000 50 Climbing Boston Center
Sat 09:36:27 AM 41.6039 -72.7039 244° Southwest 404 465 28,000  Level Boston Center
Sat 09:37:27 AM 41.5578 -72.8369 245° Southwest 404 465 28,000 -50 Level Boston Center
Sat 09:38:27 AM 41.5156 -72.9531 244° Southwest 399 459 27,900 -50 Descending Boston Center
Sat 09:39:27 AM 41.4692 -73.0828 245° Southwest 399 459 27,900 50 Level Boston Center
Sat 09:40:27 AM 41.4139 -73.2289 243° Southwest 399 459 28,000  Climbing Boston Center
Sat 09:42:55 AM 41.2956 -73.5436 243° Southwest 386 444 27,900  Descending New Center
Sat 09:43:53 AM 41.2344 -73.6625 236° Southwest 386 444 28,000  Climbing New Center
Sat 09:44:53 AM 41.1672 -73.7753 232° Southwest 391 450 27,900  Descending New Center
Sat 09:45:55 AM 41.1017 -73.8936 234° Southwest 396 456 28,000  Climbing New Center
Sat 09:46:54 AM 41.0319 -74.0058 231° Southwest 402 463 27,900 -50 Descending New Center
Sat 09:47:55 AM 40.9664 -74.1181 232° Southwest 402 463 27,900  Level New Center
Sat 09:48:55 AM 40.8986 -74.2219 229° Southwest 408 470 27,900  Level New Center
Sat 09:49:53 AM 40.8286 -74.3336 230° Southwest 408 470 27,900 51 Level New Center
Sat 09:50:52 AM 40.7628 -74.4450 232° Southwest 408 470 28,000  Climbing New Center
Sat 09:51:53 AM 40.6944 -74.5619 232° Southwest 408 470 27,900 -50 Descending New Center
Sat 09:52:52 AM 40.6264 -74.6703 230° Southwest 403 464 27,900  Level New Center
Sat 09:53:53 AM 40.5561 -74.7808 230° Southwest 403 464 27,900 -446 Level New Center
Sat 09:54:53 AM 40.4858 -74.8831 228° Southwest 396 456 27,000 -1,140 Descending New Center
Sat 09:55:54 AM 40.4111 -74.9878 227° Southwest 378 435 25,600 -1,750 Descending New Center
Sat 09:56:53 AM 40.3433 -75.0817 227° Southwest 365 420 23,500 -2,100 Descending New Center
Sat 09:57:54 AM 40.2753 -75.1753 226° Southwest 360 414 21,400 -2,016 Descending New Center
Sat 09:58:55 AM 40.2111 -75.2692 228° Southwest 360 414 19,400 -1,884 Descending New Center
Sat 09:59:55 AM 40.1453 -75.3544 225° Southwest 355 409 17,600 -1,220 Descending New Center
Sat 10:00:53 AM 40.0944 -75.4272 228° Southwest 327 376 17,000 -303 Descending New Center
Sat 10:01:54 AM 40.0283 -75.5203 227° Southwest 322 371 17,000  Level New Center
Sat 10:02:54 AM 39.9689 -75.6003 226° Southwest 317 365 17,000  Level New Center
Sat 10:03:53 AM 39.9111 -75.6828 228° Southwest 317 365 17,000  Level New Center
Sat 10:04:55 AM 39.8611 -75.7794 236° Southwest 317 365 17,000 -246 Level New Center
Sat 10:05:55 AM 39.8111 -75.8758 236° Southwest 317 365 16,500 -1,576 Descending New Center
Sat 10:06:53 AM 39.7611 -75.9722 236° Southwest 317 365 13,900 -1,430 Descending New Center
Sat 10:09:08 AM 39.6500 -76.1667 233° Southwest 264 304 11,900 -1,102 Descending Potomac TRACON
Sat 10:10:09 AM 39.6167 -76.2500 243° Southwest 261 300 10,300 -1,488 Descending Potomac TRACON
Sat 10:11:09 AM 39.5667 -76.3167 226° Southwest 258 297 8,900 -1,537 Descending Potomac TRACON
Sat 10:12:10 AM 39.5167 -76.3667 218° Southwest 250 288 7,200 -1,617 Descending Potomac TRACON
Sat 10:13:04 AM 39.4667 -76.4167 218° Southwest 247 284 5,800 -1,579 Descending Potomac TRACON
Sat 10:14:04 AM 39.3833 -76.4167 180° South 257 296 4,200 -947 Descending Potomac TRACON
Sat 10:14:58 AM 39.3167 -76.4167 180° South 257 296 4,000 -300 Descending Potomac TRACON
Sat 10:16:04 AM 39.2500 -76.4500 201° Southwest 245 282 3,600 -905 Descending Potomac TRACON
Sat 10:17:04 AM 39.1833 -76.4833 201° Southwest 242 278 2,100 -800 Descending Potomac TRACON
Sat 10:18:04 AM 39.1500 -76.5333 229° Southwest 193 222 2,000 -248 Descending Potomac TRACON
Sat 10:19:05 AM 39.1333 -76.5833 247° West 159 183 1,600 -393 Descending Potomac TRACON

Login

Don't have an account? Register now (free) for customized features, flight alerts, and more!